Time;durP1;ratioP1;P1;durP2;ratioP2;P2;SDS_P1;SDS_P2;PMS_P1;PMS_P2;Temp;Humidity;BMP_temperature;BMP_pressure;BME280_temperature;BME280_humidity;BME280_pressure;Samples;Min_cycle;Max_cycle;Signal;HPM_P1;HPM_P2
2024/03/24 00:01:09;;;;;;;4.68;2.67;;;5.80;99.90;;;;;;5031578;28;20025;-35
2024/03/24 00:03:38;;;;;;;4.63;2.50;;;5.80;99.90;;;;;;5042606;28;20086;-32
2024/03/24 00:06:04;;;;;;;3.10;2.25;;;5.80;99.90;;;;;;5029630;28;20124;-33
2024/03/24 00:08:31;;;;;;;3.40;2.30;;;5.90;99.90;;;;;;5042270;28;20492;-34
2024/03/24 00:10:57;;;;;;;4.07;2.33;;;5.90;99.90;;;;;;5029627;28;20842;-35
2024/03/24 00:13:23;;;;;;;3.13;2.08;;;6.00;99.90;;;;;;5042245;28;20098;-35
2024/03/24 00:15:49;;;;;;;5.13;2.42;;;6.00;99.90;;;;;;5031069;28;20029;-31
2024/03/24 00:18:14;;;;;;;3.95;2.78;;;6.00;99.90;;;;;;5041684;28;20728;-31
2024/03/24 00:20:40;;;;;;;2.95;2.50;;;6.10;99.90;;;;;;5032039;28;20354;-35
2024/03/24 00:23:07;;;;;;;6.32;2.90;;;6.10;99.90;;;;;;5038270;28;20109;-33
2024/03/24 00:25:33;;;;;;;4.93;2.92;;;6.10;99.90;;;;;;5035498;28;20703;-35
2024/03/24 00:27:59;;;;;;;5.35;2.78;;;6.20;99.90;;;;;;5035750;28;20036;-33
2024/03/24 00:30:24;;;;;;;4.68;2.88;;;6.20;99.90;;;;;;5037579;28;20040;-34
2024/03/24 00:32:52;;;;;;;5.85;3.63;;;6.20;99.90;;;;;;5032992;28;20048;-32
2024/03/24 00:35:18;;;;;;;6.25;3.42;;;6.30;99.90;;;;;;5040064;28;20033;-35
2024/03/24 00:37:44;;;;;;;4.80;2.88;;;6.30;99.90;;;;;;5019957;28;20036;-33
2024/03/24 00:40:09;;;;;;;6.93;3.33;;;6.30;99.90;;;;;;5039844;28;20033;-32
2024/03/24 00:42:35;;;;;;;4.82;3.13;;;6.30;99.90;;;;;;5031139;28;20430;-32
2024/03/24 00:45:01;;;;;;;5.32;3.17;;;6.30;99.90;;;;;;5042102;28;20055;-33
2024/03/24 00:47:26;;;;;;;6.47;3.00;;;6.30;99.90;;;;;;5028532;28;20526;-29
2024/03/24 00:49:52;;;;;;;6.47;3.10;;;6.40;99.90;;;;;;5042756;28;20468;-36
2024/03/24 00:52:17;;;;;;;5.88;3.55;;;6.30;99.90;;;;;;5029655;28;20029;-33
2024/03/24 00:54:43;;;;;;;5.10;3.28;;;6.30;99.90;;;;;;5041676;28;20352;-33
2024/03/24 00:57:09;;;;;;;5.32;3.33;;;6.40;99.90;;;;;;5030818;28;20918;-30
2024/03/24 00:59:37;;;;;;;6.43;3.40;;;6.40;99.90;;;;;;5038827;28;20025;-28
2024/03/24 01:02:03;;;;;;;4.22;3.78;;;6.40;99.90;;;;;;5031989;28;20013;-31
2024/03/24 01:04:28;;;;;;;6.20;4.07;;;6.40;99.90;;;;;;5036959;28;20383;-32
2024/03/24 01:06:54;;;;;;;6.03;4.00;;;6.40;99.90;;;;;;5035461;28;20021;-34
2024/03/24 01:09:23;;;;;;;4.28;3.47;;;6.40;99.90;;;;;;5034225;28;20536;-31
2024/03/24 01:11:49;;;;;;;4.78;3.63;;;6.40;99.90;;;;;;5037397;28;20145;-34
2024/03/24 01:14:17;;;;;;;6.13;3.60;;;6.40;99.90;;;;;;5032471;28;20624;-37
2024/03/24 01:16:43;;;;;;;5.53;3.95;;;6.30;99.90;;;;;;5038697;28;20021;-33
2024/03/24 01:19:09;;;;;;;6.97;4.28;;;6.40;99.90;;;;;;5030330;28;20028;-33
2024/03/24 01:21:35;;;;;;;6.32;3.80;;;6.40;99.90;;;;;;5039564;28;20050;-35
2024/03/24 01:24:00;;;;;;;6.72;4.78;;;6.40;99.90;;;;;;5029173;28;20554;-33
2024/03/24 01:26:26;;;;;;;6.63;3.97;;;6.30;99.90;;;;;;5040616;28;20037;-33
2024/03/24 01:28:51;;;;;;;6.78;4.45;;;6.30;99.90;;;;;;5028698;28;20025;-31
2024/03/24 01:31:17;;;;;;;7.10;4.43;;;6.40;99.90;;;;;;5039907;28;20060;-36
2024/03/24 01:33:42;;;;;;;6.13;4.45;;;6.40;99.90;;;;;;5028722;28;20033;-33
2024/03/24 01:36:08;;;;;;;7.03;4.70;;;6.30;99.90;;;;;;5039872;28;20032;-34
2024/03/24 01:38:34;;;;;;;6.63;4.80;;;6.30;99.90;;;;;;5029531;28;20292;-32
2024/03/24 01:40:59;;;;;;;7.72;4.75;;;6.30;99.90;;;;;;5040266;28;20037;-35
2024/03/24 01:43:25;;;;;;;5.30;4.18;;;6.30;99.90;;;;;;5031316;28;20029;-36
2024/03/24 01:45:51;;;;;;;5.18;3.75;;;6.40;99.90;;;;;;5036865;28;20033;-34
2024/03/24 01:48:17;;;;;;;5.22;3.80;;;6.30;99.90;;;;;;5034310;28;20025;-35
2024/03/24 01:50:43;;;;;;;6.57;3.90;;;6.40;99.90;;;;;;5033644;28;20037;-36
2024/03/24 01:53:10;;;;;;;5.07;4.03;;;6.40;99.90;;;;;;5037095;28;20104;-32
2024/03/24 01:55:36;;;;;;;4.57;4.18;;;6.40;99.90;;;;;;5032045;28;20024;-31
2024/03/24 01:58:02;;;;;;;4.88;4.13;;;6.40;99.90;;;;;;5038798;28;20041;-34
2024/03/24 02:00:28;;;;;;;4.35;3.95;;;6.40;99.90;;;;;;5029363;28;20040;-34
2024/03/24 02:02:54;;;;;;;6.55;4.00;;;6.40;99.90;;;;;;5037930;28;20029;-35
2024/03/24 02:05:26;;;;;;;6.47;4.68;;;6.40;99.90;;;;;;5028180;28;20529;-34
2024/03/24 02:07:57;;;;;;;7.43;4.65;;;6.40;99.90;;;;;;5040749;28;20029;-32
2024/03/24 02:10:23;;;;;;;4.57;4.15;;;6.50;99.90;;;;;;5027863;28;20571;-36
2024/03/24 02:12:49;;;;;;;6.15;4.55;;;6.50;99.90;;;;;;5020469;28;20029;-34
2024/03/24 02:15:15;;;;;;;8.30;4.78;;;6.50;99.90;;;;;;5032237;28;20033;-34
2024/03/24 02:17:43;;;;;;;5.63;4.25;;;6.50;99.90;;;;;;5020177;28;20022;-33
2024/03/24 02:20:12;;;;;;;5.93;4.25;;;6.50;99.90;;;;;;5032491;28;20494;-33
2024/03/24 02:22:38;;;;;;;5.03;3.95;;;6.60;99.90;;;;;;5019644;28;20075;-31
2024/03/24 02:25:07;;;;;;;5.90;3.58;;;6.60;99.90;;;;;;5030952;28;20091;-34
2024/03/24 02:27:33;;;;;;;4.45;3.88;;;6.60;99.90;;;;;;5020905;28;20029;-30
2024/03/24 02:29:59;;;;;;;5.82;4.40;;;6.60;99.90;;;;;;5028164;28;20033;-32
2024/03/24 02:32:28;;;;;;;4.45;3.78;;;6.60;99.90;;;;;;5022704;28;20053;-31
2024/03/24 02:34:57;;;;;;;5.78;4.50;;;6.60;99.90;;;;;;5026977;28;20430;-35
2024/03/24 02:37:22;;;;;;;7.03;4.15;;;6.60;99.90;;;;;;5024949;28;20025;-34
2024/03/24 02:39:48;;;;;;;7.45;4.15;;;6.60;99.90;;;;;;5023479;28;20044;-33
2024/03/24 02:42:14;;;;;;;7.93;4.50;;;6.60;99.90;;;;;;5028328;28;20025;-34
2024/03/24 02:44:41;;;;;;;7.95;4.40;;;6.60;99.90;;;;;;5022029;28;20536;-32
2024/03/24 02:47:07;;;;;;;4.68;3.80;;;6.60;99.90;;;;;;5030534;28;20021;-35
2024/03/24 02:49:32;;;;;;;4.35;3.10;;;6.60;99.90;;;;;;5021613;28;20031;-32
2024/03/24 02:51:58;;;;;;;3.75;3.42;;;6.50;99.90;;;;;;5031102;28;20135;-33
2024/03/24 02:54:24;;;;;;;8.07;5.38;;;6.50;99.90;;;;;;5019469;28;20021;-32
2024/03/24 02:56:49;;;;;;;5.70;4.15;;;6.50;99.90;;;;;;5031453;28;20018;-32
2024/03/24 02:59:15;;;;;;;5.13;3.40;;;6.40;99.90;;;;;;5020207;28;20037;-36
2024/03/24 03:01:40;;;;;;;3.97;3.00;;;6.40;99.90;;;;;;5031639;28;20089;-31
2024/03/24 03:04:06;;;;;;;5.60;3.25;;;6.40;99.90;;;;;;5020777;28;20619;-32
2024/03/24 03:06:43;;;;;;;4.57;3.10;;;6.30;99.90;;;;;;5031766;28;20462;-33
2024/03/24 03:09:09;;;;;;;4.20;2.95;;;6.30;99.90;;;;;;5000061;28;20703;-31
2024/03/24 03:11:36;;;;;;;4.60;3.35;;;6.30;99.90;;;;;;5024889;28;20037;-35
2024/03/24 03:14:02;;;;;;;5.50;3.83;;;6.40;99.90;;;;;;5022113;28;20456;-32
2024/03/24 03:16:27;;;;;;;8.57;3.65;;;6.40;99.90;;;;;;5026881;28;20025;-31
2024/03/24 03:18:53;;;;;;;6.70;4.20;;;6.40;99.90;;;;;;5024166;28;20033;-31
2024/03/24 03:21:20;;;;;;;5.30;3.70;;;6.50;99.90;;;;;;5024588;28;20605;-31
2024/03/24 03:23:45;;;;;;;4.38;3.10;;;6.50;99.90;;;;;;5026002;28;20025;-36
2024/03/24 03:26:11;;;;;;;6.80;3.60;;;6.50;99.90;;;;;;5022986;28;20021;-34
2024/03/24 03:28:36;;;;;;;3.17;2.85;;;6.50;99.90;;;;;;5033143;28;20029;-32
2024/03/24 03:31:02;;;;;;;3.97;2.90;;;6.50;99.90;;;;;;5024459;28;20139;-30
2024/03/24 03:33:27;;;;;;;5.68;3.20;;;6.50;99.90;;;;;;5035142;28;20025;-31
2024/03/24 03:35:53;;;;;;;4.90;3.15;;;6.60;99.90;;;;;;5024016;28;20774;-28
2024/03/24 03:38:18;;;;;;;3.60;3.30;;;6.60;99.90;;;;;;5033334;28;20131;-32
2024/03/24 03:40:44;;;;;;;5.72;3.58;;;6.60;99.90;;;;;;5022919;28;20064;-31
2024/03/24 03:43:11;;;;;;;5.85;4.25;;;6.60;99.90;;;;;;5035075;28;20025;-32
2024/03/24 03:45:37;;;;;;;6.28;3.45;;;6.60;99.90;;;;;;5023510;28;20429;-32
2024/03/24 03:48:03;;;;;;;5.38;3.38;;;6.60;99.90;;;;;;5035685;28;20021;-32
2024/03/24 03:50:33;;;;;;;7.05;3.72;;;6.60;99.90;;;;;;5022424;28;20428;-33
2024/03/24 03:53:02;;;;;;;6.00;3.03;;;6.60;99.90;;;;;;5033585;28;20622;-31
2024/03/24 03:55:28;;;;;;;5.85;2.90;;;6.60;99.90;;;;;;5023325;28;20041;-36
2024/03/24 03:57:54;;;;;;;6.30;3.47;;;6.60;99.90;;;;;;5030812;28;20760;-33
2024/03/24 04:00:19;;;;;;;4.00;2.88;;;6.50;99.90;;;;;;5026085;28;20037;-30
2024/03/24 04:02:49;;;;;;;5.45;2.47;;;6.50;99.90;;;;;;5028505;28;20021;-29
2024/03/24 04:05:15;;;;;;;4.28;1.88;;;6.40;99.90;;;;;;5028718;28;20135;-32
2024/03/24 04:07:41;;;;;;;2.47;1.25;;;6.20;99.90;;;;;;5027086;28;20210;-32
2024/03/24 04:10:07;;;;;;;2.30;1.00;;;6.00;99.90;;;;;;5030912;28;20041;-33
2024/03/24 04:12:33;;;;;;;1.45;1.15;;;5.90;99.90;;;;;;5022871;28;20142;-36
2024/03/24 04:14:59;;;;;;;1.30;0.95;;;5.90;99.90;;;;;;5032821;28;20033;-34
2024/03/24 04:17:26;;;;;;;1.52;0.80;;;5.80;99.90;;;;;;5023776;28;20560;-36
2024/03/24 04:19:52;;;;;;;1.38;0.70;;;5.80;99.90;;;;;;5033077;28;20056;-35
2024/03/24 04:22:17;;;;;;;1.35;1.10;;;5.80;99.90;;;;;;5022563;28;20464;-35
2024/03/24 04:24:43;;;;;;;2.25;1.15;;;5.80;99.90;;;;;;5033339;28;20048;-34
2024/03/24 04:27:11;;;;;;;1.55;1.15;;;5.80;99.90;;;;;;5021856;28;20025;-31
2024/03/24 04:29:36;;;;;;;2.58;1.27;;;5.70;99.90;;;;;;5034807;28;20075;-33
2024/03/24 04:32:03;;;;;;;2.33;1.25;;;5.70;99.90;;;;;;5021420;28;20053;-34
2024/03/24 04:34:28;;;;;;;2.15;1.30;;;5.70;99.90;;;;;;5033435;28;20057;-36
2024/03/24 04:36:54;;;;;;;2.00;1.20;;;5.70;99.90;;;;;;5023271;28;20117;-34
2024/03/24 04:39:21;;;;;;;2.35;1.35;;;5.70;99.90;;;;;;5028411;28;20075;-32
2024/03/24 04:41:47;;;;;;;0.82;0.82;;;5.70;99.90;;;;;;5025699;28;20706;-32
2024/03/24 04:44:12;;;;;;;2.05;1.23;;;5.70;99.90;;;;;;5029197;28;20025;-32
2024/03/24 04:46:38;;;;;;;1.70;1.10;;;5.70;99.90;;;;;;5027174;28;20030;-34
2024/03/24 04:49:04;;;;;;;1.38;1.05;;;5.70;99.90;;;;;;5025660;28;20030;-31
2024/03/24 04:51:30;;;;;;;3.55;1.45;;;5.70;99.90;;;;;;5029910;28;20041;-36
2024/03/24 04:53:58;;;;;;;1.52;1.30;;;5.70;99.90;;;;;;5022756;28;20052;-33
2024/03/24 04:56:24;;;;;;;1.23;1.10;;;5.60;99.90;;;;;;5032153;28;20025;-30
2024/03/24 04:58:50;;;;;;;1.63;1.45;;;5.60;99.90;;;;;;5022516;28;20021;-36
2024/03/24 05:01:16;;;;;;;2.08;1.20;;;5.60;99.90;;;;;;5031695;28;20026;-34
2024/03/24 05:03:45;;;;;;;1.20;1.02;;;5.60;99.90;;;;;;5021242;28;20472;-33
2024/03/24 05:06:10;;;;;;;1.20;1.10;;;5.60;99.90;;;;;;5032238;28;20029;-31
2024/03/24 05:08:40;;;;;;;2.30;1.17;;;5.60;99.90;;;;;;5021153;28;20029;-34
2024/03/24 05:11:06;;;;;;;1.65;1.00;;;5.60;99.90;;;;;;5033733;28;20690;-34
2024/03/24 05:13:38;;;;;;;2.05;0.98;;;5.60;99.90;;;;;;5021818;28;20017;-34
2024/03/24 05:16:07;;;;;;;2.20;1.10;;;5.60;99.90;;;;;;5032842;28;20025;-34
2024/03/24 05:18:36;;;;;;;1.88;1.02;;;5.60;99.90;;;;;;5021431;28;20025;-33
2024/03/24 05:21:02;;;;;;;1.15;0.90;;;5.60;99.90;;;;;;5033319;28;20167;-29
2024/03/24 05:23:27;;;;;;;2.40;0.70;;;5.60;99.90;;;;;;5022068;28;20033;-30
2024/03/24 05:25:53;;;;;;;0.80;0.80;;;5.60;99.90;;;;;;5030504;28;20369;-34
2024/03/24 05:28:19;;;;;;;1.48;0.90;;;5.60;99.90;;;;;;5023693;28;20102;-36
2024/03/24 05:30:47;;;;;;;1.33;0.80;;;5.60;99.90;;;;;;5027613;28;20052;-31
2024/03/24 05:33:12;;;;;;;2.08;1.00;;;5.60;99.90;;;;;;5026798;28;20031;-33
2024/03/24 05:35:38;;;;;;;3.15;1.08;;;5.60;99.90;;;;;;5024144;28;20033;-32
2024/03/24 05:38:04;;;;;;;1.10;0.80;;;5.50;99.90;;;;;;5029926;28;20556;-35
2024/03/24 05:40:29;;;;;;;4.93;0.90;;;5.50;99.90;;;;;;5022973;28;20032;-33
2024/03/24 05:42:55;;;;;;;1.67;0.90;;;5.50;99.90;;;;;;5031383;28;20116;-33
2024/03/24 05:45:21;;;;;;;1.63;1.00;;;5.50;99.90;;;;;;5022130;28;20025;-32
2024/03/24 05:47:49;;;;;;;1.58;1.00;;;5.50;99.90;;;;;;5031773;28;20021;-34
2024/03/24 05:50:15;;;;;;;1.23;1.00;;;5.50;99.90;;;;;;5019747;28;20061;-34
2024/03/24 05:52:43;;;;;;;2.58;1.20;;;5.60;99.90;;;;;;5032804;28;20112;-36
2024/03/24 05:55:09;;;;;;;3.25;1.33;;;5.60;99.90;;;;;;5020489;28;20027;-36
2024/03/24 05:57:36;;;;;;;4.10;1.23;;;5.70;99.90;;;;;;5032314;28;20028;-32
2024/03/24 06:00:03;;;;;;;2.83;1.30;;;5.70;99.90;;;;;;5020972;28;20029;-35
2024/03/24 06:02:28;;;;;;;3.63;1.40;;;5.70;99.90;;;;;;5032505;28;20020;-36
2024/03/24 06:04:54;;;;;;;3.30;1.40;;;5.70;99.90;;;;;;5020914;28;20036;-33
2024/03/24 06:07:22;;;;;;;2.78;1.58;;;5.80;99.90;;;;;;5030263;28;20039;-33
2024/03/24 06:09:48;;;;;;;3.65;2.47;;;5.80;99.90;;;;;;5023292;28;20029;-32
2024/03/24 06:12:14;;;;;;;2.65;1.33;;;5.90;99.90;;;;;;5026824;28;20481;-31
2024/03/24 06:14:39;;;;;;;4.00;1.88;;;5.90;99.90;;;;;;5025197;28;20040;-36
2024/03/24 06:17:06;;;;;;;6.72;2.55;;;5.90;99.90;;;;;;5025114;28;20024;-34
2024/03/24 06:19:32;;;;;;;4.05;2.10;;;5.90;99.90;;;;;;5027616;28;20069;-33
2024/03/24 06:21:58;;;;;;;2.78;1.42;;;5.90;99.90;;;;;;5022567;28;20108;-32
2024/03/24 06:24:23;;;;;;;2.35;1.52;;;5.90;99.90;;;;;;5029621;28;20036;-32
2024/03/24 06:26:49;;;;;;;2.50;1.65;;;5.80;99.90;;;;;;5020469;28;20632;-33
2024/03/24 06:29:14;;;;;;;3.25;1.50;;;5.80;99.90;;;;;;5031126;28;20030;-32
2024/03/24 06:31:40;;;;;;;3.72;1.70;;;5.80;99.90;;;;;;5020144;28;20127;-32
2024/03/24 06:34:06;;;;;;;2.88;1.50;;;5.80;99.90;;;;;;5031608;28;20025;-31
2024/03/24 06:36:34;;;;;;;2.97;1.50;;;5.80;99.90;;;;;;5020236;28;20033;-30
2024/03/24 06:39:00;;;;;;;3.67;1.88;;;5.80;99.90;;;;;;5032250;28;20755;-31
2024/03/24 06:41:26;;;;;;;2.00;1.80;;;5.80;99.90;;;;;;5019670;28;20091;-32
2024/03/24 06:43:53;;;;;;;4.10;2.00;;;5.80;99.90;;;;;;5032621;28;20025;-32
2024/03/24 06:46:19;;;;;;;4.65;1.70;;;5.80;99.90;;;;;;5019255;28;20013;-35
2024/03/24 06:48:44;;;;;;;3.30;1.95;;;5.90;99.90;;;;;;5029595;28;20043;-35
2024/03/24 06:51:10;;;;;;;4.55;2.03;;;5.90;99.90;;;;;;5021903;28;20049;-33
2024/03/24 06:53:36;;;;;;;3.40;2.05;;;6.00;99.90;;;;;;5025845;28;20056;-30
2024/03/24 06:56:02;;;;;;;3.90;1.75;;;6.00;99.90;;;;;;5025047;28;20361;-29
2024/03/24 06:58:30;;;;;;;3.90;2.08;;;6.00;99.90;;;;;;5023916;28;20091;-29
2024/03/24 07:00:55;;;;;;;5.32;1.88;;;6.10;99.90;;;;;;5027433;28;20076;-34
2024/03/24 07:03:21;;;;;;;2.83;1.70;;;6.20;99.90;;;;;;5026261;28;20033;-35
2024/03/24 07:05:46;;;;;;;4.80;1.70;;;6.20;99.90;;;;;;5034886;28;20025;-34
2024/03/24 07:08:15;;;;;;;3.45;1.65;;;6.30;99.90;;;;;;5024438;28;20655;-34
2024/03/24 07:10:40;;;;;;;4.05;1.90;;;6.30;99.90;;;;;;5034395;28;20052;-33
2024/03/24 07:13:06;;;;;;;5.20;2.40;;;6.30;99.90;;;;;;5024102;28;20034;-33
2024/03/24 07:15:32;;;;;;;6.03;2.00;;;6.40;99.90;;;;;;5034061;28;20033;-32
2024/03/24 07:17:57;;;;;;;5.70;3.00;;;6.30;99.90;;;;;;5023813;28;20644;-32
2024/03/24 07:20:26;;;;;;;3.53;1.77;;;6.30;99.90;;;;;;5035676;28;20032;-35
2024/03/24 07:22:51;;;;;;;2.58;1.60;;;6.30;99.90;;;;;;5023237;28;20103;-33
2024/03/24 07:25:17;;;;;;;5.53;2.05;;;6.30;99.90;;;;;;5035565;28;20033;-34
2024/03/24 07:27:43;;;;;;;3.90;1.90;;;6.30;99.90;;;;;;5024100;28;20025;-37
2024/03/24 07:30:09;;;;;;;3.42;1.98;;;6.40;99.90;;;;;;5033152;28;20062;-36
2024/03/24 07:32:36;;;;;;;5.50;2.20;;;6.30;99.90;;;;;;5025547;28;20655;-30
2024/03/24 07:35:02;;;;;;;3.95;2.30;;;6.40;99.90;;;;;;5030152;28;20687;-34
2024/03/24 07:37:28;;;;;;;3.80;2.58;;;6.40;99.90;;;;;;5027662;28;20038;-35
2024/03/24 07:39:53;;;;;;;6.57;3.25;;;6.50;99.90;;;;;;5027970;28;20919;-35
2024/03/24 07:42:23;;;;;;;6.45;2.65;;;6.50;99.90;;;;;;5029437;28;20059;-36
2024/03/24 07:44:49;;;;;;;4.80;2.10;;;6.60;99.90;;;;;;5026255;28;20045;-34
2024/03/24 07:47:14;;;;;;;6.85;3.28;;;6.50;99.90;;;;;;5032447;28;20029;-30
2024/03/24 07:49:40;;;;;;;6.00;3.47;;;6.50;99.90;;;;;;5023821;28;21300;-34
2024/03/24 07:52:05;;;;;;;6.88;2.60;;;6.40;99.90;;;;;;5033674;28;20040;-33
2024/03/24 07:54:31;;;;;;;5.85;2.67;;;6.40;99.90;;;;;;5023499;28;20026;-34
2024/03/24 07:56:56;;;;;;;6.97;3.10;;;6.40;99.90;;;;;;5033746;28;20036;-32
2024/03/24 07:59:22;;;;;;;9.27;3.42;;;6.40;99.90;;;;;;5022332;28;20022;-30
2024/03/24 08:01:47;;;;;;;8.93;3.42;;;6.50;99.90;;;;;;5035816;28;20037;-33
2024/03/24 08:04:16;;;;;;;7.47;3.22;;;6.60;99.90;;;;;;5022220;28;20449;-31
2024/03/24 08:06:44;;;;;;;7.32;3.25;;;6.70;99.90;;;;;;5034883;28;20051;-33
2024/03/24 08:09:13;;;;;;;10.23;3.47;;;6.80;99.90;;;;;;5023013;28;20053;-35
2024/03/24 08:11:38;;;;;;;5.95;3.15;;;6.90;99.90;;;;;;5032727;28;20032;-32
2024/03/24 08:14:04;;;;;;;6.47;3.35;;;7.00;99.90;;;;;;5023705;28;20022;-34
2024/03/24 08:16:29;;;;;;;7.10;3.53;;;7.10;99.90;;;;;;5030542;28;20036;-33
2024/03/24 08:18:55;;;;;;;6.40;3.67;;;7.10;99.90;;;;;;5025847;28;20029;-35
2024/03/24 08:21:21;;;;;;;14.02;4.18;;;7.20;99.90;;;;;;5027598;28;20118;-32
2024/03/24 08:23:46;;;;;;;6.68;3.67;;;7.20;99.90;;;;;;5029214;28;20038;-32
2024/03/24 08:26:12;;;;;;;9.43;4.50;;;7.30;99.90;;;;;;5024301;28;20481;-33
2024/03/24 08:28:37;;;;;;;11.88;4.22;;;7.40;99.90;;;;;;5031595;28;20548;-32
2024/03/24 08:31:03;;;;;;;15.50;4.18;;;7.60;99.90;;;;;;5022463;28;21330;-33
2024/03/24 08:33:29;;;;;;;10.85;4.07;;;7.60;99.90;;;;;;5032875;28;20022;-35
2024/03/24 08:35:54;;;;;;;10.55;3.83;;;7.60;99.90;;;;;;5023551;28;20103;-34
2024/03/24 08:38:20;;;;;;;13.88;3.90;;;7.60;99.90;;;;;;5032016;28;20438;-33
2024/03/24 08:40:45;;;;;;;9.93;3.40;;;7.50;99.90;;;;;;5022278;28;20738;-30
2024/03/24 08:43:11;;;;;;;10.57;4.63;;;7.30;99.90;;;;;;5033949;28;20102;-35
2024/03/24 08:45:36;;;;;;;6.47;2.85;;;7.20;99.90;;;;;;5021843;28;20079;-34
2024/03/24 08:48:03;;;;;;;4.68;2.40;;;7.20;99.90;;;;;;5033726;28;20029;-32
2024/03/24 08:50:29;;;;;;;4.22;2.47;;;7.20;99.90;;;;;;5001533;28;20764;-34
2024/03/24 08:52:54;;;;;;;5.57;2.63;;;7.30;99.90;;;;;;5025476;28;20033;-35
2024/03/24 08:55:20;;;;;;;5.68;2.13;;;7.40;99.90;;;;;;5023857;28;20055;-33
2024/03/24 08:57:45;;;;;;;6.72;1.90;;;7.50;99.90;;;;;;5029126;28;20017;-35
2024/03/24 09:00:12;;;;;;;6.00;2.10;;;7.50;99.90;;;;;;5026007;28;20564;-34
2024/03/24 09:02:38;;;;;;;7.55;3.10;;;7.60;99.90;;;;;;5025680;28;20017;-34
2024/03/24 09:05:04;;;;;;;5.50;2.53;;;7.70;99.90;;;;;;5029221;28;20048;-32
2024/03/24 09:07:30;;;;;;;8.13;3.60;;;7.80;99.90;;;;;;5022629;28;20022;-34
2024/03/24 09:09:56;;;;;;;7.95;3.65;;;7.80;99.90;;;;;;5031668;28;20388;-32
2024/03/24 09:12:21;;;;;;;10.45;3.83;;;7.80;99.90;;;;;;5021533;28;20036;-33
2024/03/24 09:14:47;;;;;;;9.43;3.42;;;7.80;99.90;;;;;;5032074;28;20021;-33
2024/03/24 09:17:13;;;;;;;5.03;2.40;;;7.70;99.90;;;;;;5021729;28;20550;-32
2024/03/24 09:19:39;;;;;;;7.03;2.50;;;7.70;99.90;;;;;;5032504;28;20021;-34
2024/03/24 09:22:07;;;;;;;7.75;2.42;;;7.60;99.90;;;;;;5021104;28;20072;-35
2024/03/24 09:24:33;;;;;;;4.78;2.13;;;7.50;99.90;;;;;;5032145;28;20035;-32
2024/03/24 09:27:00;;;;;;;6.53;1.88;;;7.50;99.90;;;;;;5020920;28;20025;-30
2024/03/24 09:29:26;;;;;;;6.85;1.98;;;7.40;99.90;;;;;;5031733;28;20040;-32
2024/03/24 09:31:52;;;;;;;5.20;2.30;;;7.40;99.90;;;;;;5020404;28;20129;-35
2024/03/24 09:34:17;;;;;;;4.65;1.85;;;7.40;99.90;;;;;;5030144;28;20839;-34
2024/03/24 09:36:43;;;;;;;5.85;1.90;;;7.30;99.90;;;;;;5022421;28;20025;-35
2024/03/24 09:39:09;;;;;;;7.65;2.20;;;7.40;99.90;;;;;;5026651;28;20040;-34
2024/03/24 09:41:44;;;;;;;3.65;1.70;;;7.30;99.90;;;;;;5025083;28;20025;-35
2024/03/24 09:44:14;;;;;;;7.00;2.40;;;7.30;99.90;;;;;;5027037;28;20106;-35
2024/03/24 09:46:44;;;;;;;5.68;2.40;;;7.30;99.90;;;;;;5026553;28;20116;-34
2024/03/24 09:49:14;;;;;;;3.92;1.90;;;7.30;99.90;;;;;;5024193;28;20037;-33
2024/03/24 09:51:41;;;;;;;7.90;2.38;;;7.30;99.90;;;;;;5027227;28;20056;-34
2024/03/24 09:54:11;;;;;;;7.32;2.30;;;7.40;99.90;;;;;;5022427;28;20035;-33
2024/03/24 09:56:37;;;;;;;4.70;2.10;;;7.40;99.90;;;;;;5028199;28;20032;-34
2024/03/24 09:59:04;;;;;;;4.45;1.90;;;7.40;99.90;;;;;;5021571;28;20025;-34
2024/03/24 10:01:37;;;;;;;4.82;1.90;;;7.40;99.90;;;;;;5031810;28;20025;-32
2024/03/24 10:04:06;;;;;;;5.50;1.70;;;7.40;99.90;;;;;;5020894;28;20460;-36
2024/03/24 10:06:33;;;;;;;5.53;2.28;;;7.40;99.90;;;;;;5031129;28;20025;-32
2024/03/24 10:09:04;;;;;;;4.30;1.73;;;7.30;99.90;;;;;;5022074;28;20033;-31
2024/03/24 10:11:32;;;;;;;5.78;1.80;;;7.30;99.90;;;;;;5027508;28;20065;-30
2024/03/24 10:13:59;;;;;;;3.95;1.52;;;7.30;99.90;;;;;;5020410;28;20352;-33
2024/03/24 10:16:25;;;;;;;5.10;2.35;;;7.30;99.90;;;;;;5031159;28;20026;-35
2024/03/24 10:18:54;;;;;;;2.35;1.30;;;7.40;99.90;;;;;;5019024;28;20028;-34
2024/03/24 10:21:20;;;;;;;7.32;1.65;;;7.40;99.90;;;;;;5031388;28;20477;-31
2024/03/24 10:23:46;;;;;;;5.38;1.55;;;7.40;99.90;;;;;;5019552;28;20140;-36
2024/03/24 10:26:22;;;;;;;4.43;1.73;;;7.50;99.90;;;;;;5030372;28;20036;-37
2024/03/24 10:28:49;;;;;;;3.33;1.20;;;7.60;99.90;;;;;;5000448;28;20112;-34
2024/03/24 10:31:15;;;;;;;9.05;1.80;;;7.70;99.90;;;;;;5023035;28;20504;-34
2024/03/24 10:33:41;;;;;;;9.80;1.58;;;7.80;99.90;;;;;;5021192;28;20041;-33
2024/03/24 10:36:07;;;;;;;5.45;1.52;;;7.80;99.90;;;;;;5026857;28;20025;-34
2024/03/24 10:38:36;;;;;;;4.82;1.35;;;7.90;99.90;;;;;;5023429;28;20830;-34
2024/03/24 10:41:03;;;;;;;3.42;1.50;;;8.00;99.90;;;;;;5025134;28;20029;-33
2024/03/24 10:43:30;;;;;;;4.03;1.58;;;8.10;99.90;;;;;;5025553;28;20653;-31
2024/03/24 10:45:56;;;;;;;6.22;1.85;;;8.20;99.90;;;;;;5022459;28;20028;-35
2024/03/24 10:48:33;;;;;;;5.47;1.92;;;8.30;99.90;;;;;;5027757;28;20033;-34
2024/03/24 10:51:02;;;;;;;4.90;1.80;;;8.40;99.90;;;;;;5021560;28;20798;-33
2024/03/24 10:53:33;;;;;;;5.38;1.90;;;8.50;99.90;;;;;;5027870;28;20029;-31
2024/03/24 10:56:00;;;;;;;7.73;1.70;;;8.60;99.90;;;;;;5020591;28;20017;-33
2024/03/24 10:58:27;;;;;;;6.65;1.83;;;8.60;99.90;;;;;;5030208;28;20025;-35
2024/03/24 11:00:54;;;;;;;7.50;2.00;;;8.70;99.90;;;;;;5020406;28;20017;-37
2024/03/24 11:03:21;;;;;;;5.93;1.60;;;8.80;99.90;;;;;;5029903;28;20029;-34
2024/03/24 11:05:51;;;;;;;7.70;1.80;;;8.90;99.90;;;;;;5019693;28;20059;-35
2024/03/24 11:08:21;;;;;;;4.70;1.63;;;8.90;99.90;;;;;;5030259;28;20040;-36
2024/03/24 11:10:49;;;;;;;7.18;1.83;;;9.00;99.90;;;;;;5019486;28;20033;-34
2024/03/24 11:13:21;;;;;;;7.30;1.80;;;9.00;99.90;;;;;;5031005;28;20052;-34
2024/03/24 11:15:48;;;;;;;7.88;2.20;;;9.00;99.90;;;;;;5019888;28;20056;-33
2024/03/24 11:18:24;;;;;;;6.10;2.58;;;9.00;99.90;;;;;;5030997;28;20063;-32
2024/03/24 11:20:58;;;;;;;5.28;1.60;;;9.10;99.90;;;;;;5018735;28;20112;-33
2024/03/24 11:23:40;;;;;;;5.35;1.80;;;9.10;99.90;;;;;;5030733;28;20037;-33
2024/03/24 11:26:07;;;;;;;8.70;2.78;;;9.20;99.90;;;;;;5018797;28;20550;-36
2024/03/24 11:28:48;;;;;;;7.45;2.22;;;9.30;99.90;;;;;;5030067;28;20392;-37
2024/03/24 11:31:30;;;;;;;5.82;1.70;;;9.50;99.90;;;;;;5018568;28;20072;-36
2024/03/24 11:34:31;;;;;;;10.00;2.50;;;9.50;99.90;;;;;;5031338;28;20417;-34
2024/03/24 11:36:59;;;;;;;10.05;2.45;;;9.50;99.90;;;;;;5020435;28;20130;-35
2024/03/24 11:39:26;;;;;;;7.40;2.30;;;9.50;99.90;;;;;;5026217;28;20414;-31
2024/03/24 11:41:52;;;;;;;9.35;2.50;;;9.50;99.90;;;;;;5018736;28;20029;-34
2024/03/24 11:44:18;;;;;;;7.38;2.20;;;9.50;99.90;;;;;;5030408;28;20041;-34
2024/03/24 11:46:44;;;;;;;7.68;2.60;;;9.50;99.90;;;;;;5018926;28;20033;-31
2024/03/24 11:49:11;;;;;;;8.85;2.58;;;9.40;99.90;;;;;;5033667;28;20499;-33
2024/03/24 11:51:37;;;;;;;6.20;2.40;;;9.40;99.90;;;;;;5022700;28;20040;-33
2024/03/24 11:54:04;;;;;;;11.73;2.88;;;9.30;99.90;;;;;;5033016;28;20021;-34
2024/03/24 11:56:31;;;;;;;9.43;2.70;;;9.30;99.90;;;;;;5023245;28;20041;-33
2024/03/24 11:58:57;;;;;;;7.53;2.10;;;9.30;99.90;;;;;;5031098;28;20812;-36
2024/03/24 12:01:24;;;;;;;9.55;2.28;;;9.30;99.90;;;;;;5025055;28;20152;-37
2024/03/24 12:03:51;;;;;;;8.48;2.22;;;9.30;99.90;;;;;;5027545;28;20063;-33
2024/03/24 12:06:18;;;;;;;6.50;1.80;;;9.30;99.90;;;;;;5027774;28;20087;-33
2024/03/24 12:08:49;;;;;;;6.35;1.92;;;9.30;99.90;;;;;;5025473;28;20627;-32
2024/03/24 12:11:15;;;;;;;7.85;1.90;;;9.20;99.90;;;;;;5029292;28;20087;-35
2024/03/24 12:13:41;;;;;;;9.70;1.90;;;9.20;99.90;;;;;;5023919;28;20116;-34
2024/03/24 12:16:15;;;;;;;7.32;2.00;;;9.10;99.90;;;;;;5032102;28;20174;-33
2024/03/24 12:18:40;;;;;;;6.15;1.75;;;9.10;99.90;;;;;;5023290;28;20425;-32
2024/03/24 12:21:06;;;;;;;7.47;1.73;;;9.10;99.90;;;;;;5032922;28;20025;-32
2024/03/24 12:23:32;;;;;;;6.40;1.70;;;9.00;99.90;;;;;;5022092;28;20041;-34
2024/03/24 12:25:58;;;;;;;7.10;2.00;;;8.90;99.90;;;;;;5033601;28;20025;-33
2024/03/24 12:28:23;;;;;;;6.97;1.70;;;8.90;99.90;;;;;;5021942;28;20033;-35
2024/03/24 12:30:59;;;;;;;5.35;1.80;;;8.80;99.90;;;;;;5028708;28;20037;-32
2024/03/24 12:33:26;;;;;;;9.05;2.08;;;8.80;99.90;;;;;;5041090;28;20044;-35
2024/03/24 12:35:54;;;;;;;8.60;1.88;;;8.90;99.90;;;;;;5029458;28;20033;-35
2024/03/24 12:38:20;;;;;;;6.80;2.17;;;8.90;99.90;;;;;;5040806;28;20132;-33
2024/03/24 12:40:56;;;;;;;10.27;1.88;;;9.00;99.90;;;;;;5030510;28;20033;-31
2024/03/24 12:43:26;;;;;;;8.90;1.65;;;9.10;99.90;;;;;;5001500;28;20493;-35
2024/03/24 12:46:01;;;;;;;4.50;1.73;;;9.30;99.90;;;;;;5027597;28;20033;-31
2024/03/24 12:48:31;;;;;;;8.68;1.90;;;9.40;99.90;;;;;;5001708;28;20022;-34
2024/03/24 12:50:57;;;;;;;6.45;1.70;;;9.50;99.90;;;;;;5026975;28;20029;-33
2024/03/24 12:53:38;;;;;;;7.22;1.75;;;9.60;99.90;;;;;;5022468;28;20508;-35
2024/03/24 12:56:07;;;;;;;6.47;2.00;;;9.60;99.90;;;;;;5031488;28;20032;-37